Time;durP1;ratioP1;P1;durP2;ratioP2;P2;SDS_P1;SDS_P2;PMS_P1;PMS_P2;Temp;Humidity;BMP_temperature;BMP_pressure;BME280_temperature;BME280_humidity;BME280_pressure;Samples;Min_cycle;Max_cycle;Signal;HPM_P1;HPM_P2
2021/12/18 00:02:17;;;;;;;;;39.25;30.50;;;;;13.29;98.83;103132.03;5016924;28;46024;-87
2021/12/18 00:04:42;;;;;;;;;26.25;21.50;;;;;13.41;96.87;103126.19;5026849;28;45325;-85
2021/12/18 00:07:08;;;;;;;;;41.25;29.25;;;;;13.44;96.62;103115.47;5023214;28;45504;-84
2021/12/18 00:09:34;;;;;;;;;45.25;28.75;;;;;13.43;96.24;103124.34;5005111;28;45487;-86
2021/12/18 00:12:01;;;;;;;;;36.75;28.00;;;;;13.35;96.33;103115.84;5022535;28;45349;-86
2021/12/18 00:14:27;;;;;;;;;37.75;30.75;;;;;13.52;95.90;103123.09;5021970;28;45385;-87
2021/12/18 00:16:53;;;;;;;;;36.00;26.75;;;;;13.52;95.65;103107.19;5025876;28;45330;-86
2021/12/18 00:19:24;;;;;;;;;37.25;25.75;;;;;13.56;95.20;103108.78;5004201;28;45593;-87
2021/12/18 00:21:49;;;;;;;;;35.75;28.00;;;;;13.53;95.19;103108.91;5008999;28;46514;-87
2021/12/18 00:24:15;;;;;;;;;36.00;29.00;;;;;13.52;95.49;103113.34;5032657;28;45376;-86
2021/12/18 00:26:40;;;;;;;;;36.75;30.00;;;;;13.49;95.10;103103.72;5021529;28;45419;-86
2021/12/18 00:29:06;;;;;;;;;45.50;26.25;;;;;13.47;95.13;103112.69;5017299;28;45701;-89
2021/12/18 00:31:31;;;;;;;;;32.00;26.75;;;;;13.41;94.51;103099.66;5022561;28;46146;-88
2021/12/18 00:33:56;;;;;;;;;39.25;26.75;;;;;13.40;94.73;103098.78;5034927;28;45396;-88
2021/12/18 00:36:22;;;;;;;;;30.75;24.75;;;;;13.47;94.61;103107.38;5021864;28;45252;-89
2021/12/18 00:38:47;;;;;;;;;34.00;25.00;;;;;13.39;94.44;103107.69;5017525;28;45397;-86
2021/12/18 00:41:26;;;;;;;;;40.75;24.75;;;;;13.35;94.47;103108.75;5004828;28;47992;-87
2021/12/18 00:44:03;;;;;;;;;34.00;24.00;;;;;13.23;95.02;103113.69;5021523;28;45762;-85
2021/12/18 00:46:35;;;;;;;;;35.25;25.00;;;;;13.26;94.65;103105.63;5020510;28;45502;-86
2021/12/18 00:49:02;;;;;;;;;37.75;27.50;;;;;13.17;94.84;103098.91;5036046;28;45506;-86
2021/12/18 00:51:28;;;;;;;;;41.75;26.00;;;;;13.14;94.74;103095.50;5019105;28;47626;-86
2021/12/18 00:53:53;;;;;;;;;30.25;22.50;;;;;13.06;94.86;103090.47;5021755;28;45389;-85
2021/12/18 00:56:19;;;;;;;;;30.25;27.25;;;;;12.99;95.06;103092.50;5022190;28;45473;-85
2021/12/18 00:58:44;;;;;;;;;34.00;27.25;;;;;13.06;95.02;103088.69;5037281;28;45698;-85
2021/12/18 01:01:11;;;;;;;;;37.00;24.00;;;;;13.07;94.83;103095.72;5009944;28;45445;-85
2021/12/18 01:03:39;;;;;;;;;35.75;24.50;;;;;13.17;94.84;103090.94;5034701;28;45435;-87
2021/12/18 01:06:05;;;;;;;;;32.50;25.00;;;;;13.11;94.70;103088.47;5028220;28;46865;-86
2021/12/18 01:08:31;;;;;;;;;32.25;23.00;;;;;12.92;95.31;103101.66;5032401;28;45692;-86
2021/12/18 01:13:32;;;;;;;;;43.75;26.25;;;;;12.82;95.01;103089.69;5030950;28;45333;-86
2021/12/18 01:16:07;;;;;;;;;28.00;24.00;;;;;12.86;95.27;103101.00;5020824;28;45421;-86
2021/12/18 01:24:00;;;;;;;;;33.25;26.00;;;;;12.86;94.92;103111.59;5022446;28;45223;-86
2021/12/18 01:26:25;;;;;;;;;29.00;23.50;;;;;12.87;94.39;103108.03;5022379;28;45255;-86
2021/12/18 01:28:51;;;;;;;;;33.25;23.25;;;;;12.86;94.50;103098.34;5022507;28;45338;-85
2021/12/18 01:31:16;;;;;;;;;31.00;25.00;;;;;12.90;94.51;103100.84;5020730;28;47146;-86
2021/12/18 01:33:41;;;;;;;;;34.25;23.75;;;;;12.88;94.40;103093.84;5010349;28;45556;-87
2021/12/18 01:36:07;;;;;;;;;25.75;24.25;;;;;12.79;94.27;103091.56;5023725;28;45580;-86
2021/12/18 01:38:32;;;;;;;;;38.75;25.25;;;;;12.85;94.37;103105.44;5019279;28;45530;-86
2021/12/18 01:40:59;;;;;;;;;29.25;23.50;;;;;12.94;94.09;103112.16;5022240;28;46042;-86
2021/12/18 01:46:18;;;;;;;;;31.75;21.00;;;;;12.92;94.07;103116.69;5040448;28;44849;-86
2021/12/18 01:52:00;;;;;;;;;34.00;27.25;;;;;12.75;94.28;103120.84;5039527;28;45198;-86
2021/12/18 01:54:26;;;;;;;;;32.00;25.25;;;;;12.84;94.21;103116.13;5036422;28;45671;-86
2021/12/18 01:56:51;;;;;;;;;32.00;27.75;;;;;12.82;94.01;103107.38;5021906;28;45409;-86
2021/12/18 01:59:16;;;;;;;;;34.25;26.00;;;;;12.99;93.60;103104.91;5021159;28;45438;-86
2021/12/18 02:01:42;;;;;;;;;28.00;24.00;;;;;13.01;93.26;103103.94;5019902;28;47076;-86
2021/12/18 02:04:07;;;;;;;;;27.25;24.00;;;;;12.94;92.98;103098.91;5019968;28;45313;-86
2021/12/18 02:06:33;;;;;;;;;34.75;23.50;;;;;12.88;93.25;103107.13;5021575;28;45294;-86
2021/12/18 02:08:58;;;;;;;;;33.00;23.50;;;;;12.92;93.18;103106.09;5020942;28;45530;-86
2021/12/18 02:22:13;;;;;;;;;30.25;23.25;;;;;12.60;93.50;103110.84;5022871;28;45868;-86
2021/12/18 02:24:38;;;;;;;;;39.25;24.25;;;;;12.56;93.54;103119.84;5020847;28;45274;-86
2021/12/18 02:27:04;;;;;;;;;38.25;23.75;;;;;12.56;93.61;103106.59;5021072;28;45665;-87
2021/12/18 02:29:31;;;;;;;;;36.00;26.75;;;;;12.60;93.63;103109.97;5020467;28;45272;-87
2021/12/18 02:31:57;;;;;;;;;36.75;23.00;;;;;12.63;93.63;103104.56;5020452;28;45572;-87
2021/12/18 02:34:28;;;;;;;;;28.25;26.00;;;;;12.65;93.42;103114.19;5020613;28;45395;-87
2021/12/18 02:37:00;;;;;;;;;28.75;24.75;;;;;12.59;93.84;103109.09;5021007;28;45311;-86
2021/12/18 02:39:43;;;;;;;;;31.00;25.00;;;;;12.63;93.60;103117.81;5020653;28;45469;-86
2021/12/18 02:42:11;;;;;;;;;33.50;26.75;;;;;12.50;93.85;103120.06;5011585;28;48105;-87
2021/12/18 02:44:41;;;;;;;;;28.50;19.25;;;;;12.61;93.58;103117.88;5020487;28;45276;-86
2021/12/18 02:47:08;;;;;;;;;32.50;24.00;;;;;12.58;93.47;103106.50;5020731;28;45283;-86
2021/12/18 02:49:34;;;;;;;;;29.50;22.00;;;;;12.59;93.25;103109.09;5020472;28;45434;-87
2021/12/18 02:52:00;;;;;;;;;27.50;24.50;;;;;12.65;93.26;103113.34;5020498;28;45537;-86
2021/12/18 02:54:26;;;;;;;;;30.50;25.75;;;;;12.53;93.66;103109.34;5019359;28;45465;-86
2021/12/18 02:56:54;;;;;;;;;34.25;20.00;;;;;12.51;93.26;103105.88;5020269;28;45460;-86
2021/12/18 02:59:21;;;;;;;;;30.25;24.50;;;;;12.53;93.15;103109.34;5018672;28;45642;-87
2021/12/18 03:01:46;;;;;;;;;32.00;23.75;;;;;12.55;93.23;103111.94;5020367;28;45581;-86
2021/12/18 03:04:25;;;;;;;;;35.25;25.50;;;;;12.43;93.17;103107.97;5035410;28;45510;-87
2021/12/18 03:06:56;;;;;;;;;36.25;27.25;;;;;12.40;93.68;103101.91;5020456;28;45437;-86
2021/12/18 03:25:29;;;;;;;;;40.50;23.50;;;;;12.69;92.90;103106.97;4998485;28;45413;-86
2021/12/18 03:27:58;;;;;;;;;31.00;24.75;;;;;12.79;93.00;103108.34;5019866;28;45390;-87
2021/12/18 03:30:23;;;;;;;;;31.75;22.00;;;;;12.74;93.04;103111.19;5019487;28;46618;-87
2021/12/18 03:32:49;;;;;;;;;35.00;25.25;;;;;12.71;93.00;103103.34;5019733;28;45423;-86
2021/12/18 03:35:16;;;;;;;;;31.50;24.00;;;;;12.76;93.09;103111.09;5019678;28;45490;-86
2021/12/18 03:37:42;;;;;;;;;29.50;24.25;;;;;12.55;93.84;103102.22;5029940;28;45655;-86
2021/12/18 03:40:12;;;;;;;;;34.00;24.25;;;;;12.55;94.22;103098.69;5019708;28;45265;-87
2021/12/18 03:42:37;;;;;;;;;36.25;25.50;;;;;12.66;93.78;103102.66;5013888;28;48254;-87
2021/12/18 03:45:05;;;;;;;;;43.25;26.25;;;;;12.80;93.70;103103.91;5017854;28;46075;-86
2021/12/18 03:47:31;;;;;;;;;28.00;25.00;;;;;12.74;93.83;103095.28;5019709;28;45425;-87
2021/12/18 03:49:56;;;;;;;;;31.50;22.75;;;;;12.71;93.60;103087.44;5019581;28;45363;-87
2021/12/18 03:52:22;;;;;;;;;35.50;23.00;;;;;12.75;93.63;103085.50;5019652;28;45439;-86
2021/12/18 03:54:47;;;;;;;;;27.75;20.75;;;;;12.84;93.87;103085.16;5018255;28;45158;-86
2021/12/18 03:57:13;;;;;;;;;28.75;24.00;;;;;12.86;93.97;103085.97;5019544;28;45217;-87
2021/12/18 03:59:38;;;;;;;;;30.00;23.25;;;;;12.78;94.04;103077.44;5019331;28;45275;-87
2021/12/18 04:02:04;;;;;;;;;27.00;23.25;;;;;12.77;94.04;103080.16;5019542;28;46114;-87
2021/12/18 04:04:29;;;;;;;;;32.00;23.25;;;;;12.88;94.34;103081.47;5017905;28;45238;-86
2021/12/18 04:06:55;;;;;;;;;33.00;19.25;;;;;12.79;94.44;103081.84;5019634;28;45289;-87
2021/12/18 04:09:20;;;;;;;;;31.25;22.75;;;;;12.86;95.00;103090.41;5019097;28;45415;-87
2021/12/18 04:11:46;;;;;;;;;33.75;20.50;;;;;12.98;94.39;103089.91;5018109;28;46194;-86
2021/12/18 04:14:12;;;;;;;;;30.75;26.25;;;;;12.90;94.40;103087.56;5019037;28;45288;-87
2021/12/18 04:16:38;;;;;;;;;41.00;23.50;;;;;13.05;94.01;103084.28;5019820;28;45373;-87
2021/12/18 04:19:04;;;;;;;;;31.50;25.25;;;;;13.16;93.91;103091.84;5018900;28;45659;-86
2021/12/18 04:21:32;;;;;;;;;34.00;27.75;;;;;13.10;94.36;103090.31;5019316;28;46170;-87
2021/12/18 04:23:58;;;;;;;;;37.75;25.00;;;;;13.04;94.14;103100.28;5018862;28;45328;-87
2021/12/18 04:26:23;;;;;;;;;33.75;27.50;;;;;12.88;94.25;103078.81;5019419;28;45233;-87
2021/12/18 04:28:49;;;;;;;;;31.00;23.50;;;;;13.02;94.21;103083.53;5019017;28;45428;-86
2021/12/18 04:31:15;;;;;;;;;35.25;26.75;;;;;12.99;94.50;103083.69;5019038;28;45303;-87
2021/12/18 04:33:40;;;;;;;;;39.25;24.25;;;;;12.99;94.74;103087.22;5017532;28;46072;-87
2021/12/18 04:36:07;;;;;;;;;35.75;26.50;;;;;13.06;94.88;103093.13;5019321;28;45391;-87
2021/12/18 04:38:32;;;;;;;;;29.50;25.00;;;;;13.05;95.14;103094.91;5019064;28;46573;-87
2021/12/18 04:40:58;;;;;;;;;37.25;25.75;;;;;12.93;95.15;103086.59;5017564;28;46010;-86
2021/12/18 04:43:24;;;;;;;;;39.00;28.25;;;;;12.92;95.09;103079.56;5021602;28;45430;-86
2021/12/18 04:45:49;;;;;;;;;27.50;20.25;;;;;12.99;95.11;103081.03;5022630;28;45473;-87
2021/12/18 04:48:15;;;;;;;;;30.25;25.50;;;;;13.01;94.96;103089.81;5022224;28;45424;-87
2021/12/18 04:50:40;;;;;;;;;36.25;24.25;;;;;13.02;95.36;103088.84;5021094;28;46959;-86
2021/12/18 04:53:06;;;;;;;;;30.00;20.75;;;;;13.06;95.20;103095.78;5022224;28;45326;-86
2021/12/18 04:55:31;;;;;;;;;34.75;24.25;;;;;13.07;95.35;103097.50;5022368;28;45319;-87
2021/12/18 04:57:57;;;;;;;;;36.75;28.50;;;;;13.08;95.25;103107.19;5022037;28;45511;-87
2021/12/18 05:00:29;;;;;;;;;37.50;26.25;;;;;13.12;94.91;103098.16;5022055;28;45331;-87
2021/12/18 05:02:55;;;;;;;;;32.00;24.25;;;;;13.11;95.26;103101.75;5022339;28;45411;-87
2021/12/18 05:05:21;;;;;;;;;41.00;30.75;;;;;13.18;95.55;103105.06;5018331;28;45369;-86
2021/12/18 05:07:46;;;;;;;;;40.00;29.50;;;;;13.19;95.23;103099.69;5020885;28;45493;-87
2021/12/18 05:10:13;;;;;;;;;25.50;18.75;;;;;13.24;94.99;103108.31;5021905;28;45495;-87
2021/12/18 05:12:39;;;;;;;;;31.00;24.75;;;;;13.16;95.18;103099.81;5022064;28;45699;-87
2021/12/18 05:15:06;;;;;;;;;42.75;24.50;;;;;13.10;95.03;103106.22;5021867;28;45321;-87
2021/12/18 05:17:32;;;;;;;;;28.50;21.75;;;;;13.10;95.08;103108.00;5021738;28;45434;-87
2021/12/18 05:19:58;;;;;;;;;35.25;25.00;;;;;13.12;94.97;103108.78;5021828;28;45410;-86
2021/12/18 05:22:23;;;;;;;;;40.75;25.50;;;;;13.09;95.46;103114.22;5021688;28;45353;-86
2021/12/18 05:24:48;;;;;;;;;36.00;23.50;;;;;12.98;95.31;103106.69;5021863;28;45407;-86
2021/12/18 05:27:14;;;;;;;;;27.00;20.75;;;;;13.01;95.04;103109.25;5020484;28;45813;-87
2021/12/18 05:29:40;;;;;;;;;32.75;20.00;;;;;13.04;95.15;103116.19;5021468;28;45907;-87
2021/12/18 05:32:05;;;;;;;;;27.25;25.25;;;;;13.03;95.13;103111.81;5021733;28;45468;-86
2021/12/18 05:34:36;;;;;;;;;33.25;25.25;;;;;13.03;95.32;103107.38;5021594;28;45338;-86
2021/12/18 05:40:04;;;;;;;;;28.75;21.50;;;;;13.14;94.82;103114.06;4960428;28;45555;-87
2021/12/18 05:42:30;;;;;;;;;31.25;23.00;;;;;13.20;94.71;103105.88;5008703;28;45247;-87
2021/12/18 05:44:55;;;;;;;;;33.75;25.75;;;;;13.18;94.55;103108.59;5003661;28;45275;-87
2021/12/18 05:47:21;;;;;;;;;37.00;26.25;;;;;13.21;94.27;103110.22;5021470;28;45288;-87
2021/12/18 05:49:46;;;;;;;;;30.50;24.00;;;;;13.25;94.40;103110.06;5021374;28;45875;-87
2021/12/18 05:52:12;;;;;;;;;31.50;24.75;;;;;13.21;94.50;103105.78;5021456;28;45225;-87
2021/12/18 05:54:37;;;;;;;;;31.00;23.75;;;;;13.22;94.42;103102.22;5020425;28;45433;-86
2021/12/18 05:57:05;;;;;;;;;35.00;23.50;;;;;13.27;94.27;103112.66;5019090;28;45455;-86
2021/12/18 05:59:30;;;;;;;;;34.25;23.25;;;;;13.19;93.97;103104.16;5020849;28;46016;-87
2021/12/18 06:01:56;;;;;;;;;31.75;23.25;;;;;13.09;93.90;103107.13;5021482;28;45363;-87
2021/12/18 06:04:21;;;;;;;;;33.25;21.50;;;;;12.91;94.51;103099.06;5036539;28;45467;-87
2021/12/18 06:06:46;;;;;;;;;32.00;26.00;;;;;12.92;94.23;103090.19;5019997;28;45515;-87
2021/12/18 06:09:12;;;;;;;;;39.50;27.50;;;;;12.88;94.03;103100.03;5020866;28;45496;-87
2021/12/18 06:11:39;;;;;;;;;34.25;25.25;;;;;12.68;94.73;103097.28;5021204;28;45307;-87
2021/12/18 06:14:05;;;;;;;;;29.75;25.50;;;;;12.70;94.75;103103.41;5018999;28;45504;-87
2021/12/18 06:16:31;;;;;;;;;34.75;24.00;;;;;12.82;94.39;103091.47;5021142;28;45529;-87
2021/12/18 06:18:57;;;;;;;;;28.00;24.50;;;;;12.78;94.09;103085.41;5020575;28;46257;-86
2021/12/18 06:21:23;;;;;;;;;30.25;27.25;;;;;12.72;94.39;103097.13;5021140;28;45480;-87
2021/12/18 06:23:50;;;;;;;;;36.75;25.00;;;;;12.65;94.74;103092.13;5030658;28;45471;-86
2021/12/18 06:26:17;;;;;;;;;30.50;24.00;;;;;12.63;94.83;103089.53;5019594;28;45675;-87
2021/12/18 06:28:42;;;;;;;;;28.75;22.75;;;;;12.52;94.76;103089.06;5019288;28;48295;-86
2021/12/18 06:31:08;;;;;;;;;36.00;27.00;;;;;12.51;94.77;103091.78;5036198;28;45913;-87
2021/12/18 06:33:34;;;;;;;;;39.75;25.50;;;;;12.61;94.58;103099.31;5036162;28;45356;-87
2021/12/18 06:35:59;;;;;;;;;39.50;25.75;;;;;12.54;94.64;103096.97;5020834;28;45285;-87
2021/12/18 06:38:25;;;;;;;;;31.00;21.50;;;;;12.56;94.57;103092.47;5019273;28;48219;-86
2021/12/18 06:40:51;;;;;;;;;33.75;28.25;;;;;12.54;94.56;103094.31;5020675;28;45824;-87
2021/12/18 06:43:16;;;;;;;;;34.00;24.00;;;;;12.47;94.80;103091.03;5004098;28;45357;-86
2021/12/18 06:45:42;;;;;;;;;39.75;27.25;;;;;12.38;95.11;103091.41;5020703;28;45724;-86
2021/12/18 06:48:07;;;;;;;;;30.75;27.25;;;;;12.46;95.13;103107.88;5020086;28;48228;-87
2021/12/18 06:50:34;;;;;;;;;29.00;22.75;;;;;12.57;94.69;103100.34;5021402;28;44776;-86
2021/12/18 06:53:00;;;;;;;;;34.25;23.50;;;;;12.42;95.53;103095.63;5021732;28;45307;-86
2021/12/18 06:55:26;;;;;;;;;40.00;29.50;;;;;12.36;95.76;103095.88;5005697;28;45271;-86
2021/12/18 06:57:51;;;;;;;;;35.50;28.00;;;;;12.28;95.88;103117.38;5021340;28;46356;-86
2021/12/18 07:00:18;;;;;;;;;33.00;20.75;;;;;12.42;95.76;103116.84;5027863;28;45201;-86
2021/12/18 07:02:43;;;;;;;;;29.25;21.50;;;;;12.43;95.52;103107.97;5023909;28;45229;-86
2021/12/18 07:05:10;;;;;;;;;29.25;21.75;;;;;12.47;95.49;103109.59;5007621;28;45547;-86
2021/12/18 07:07:36;;;;;;;;;37.00;25.25;;;;;12.41;95.87;103104.50;5038792;28;47115;-86
2021/12/18 07:10:03;;;;;;;;;28.25;23.75;;;;;12.34;95.58;103098.59;5022732;28;45386;-85
2021/12/18 07:12:28;;;;;;;;;31.25;26.50;;;;;12.33;95.33;103114.53;5026895;28;45542;-85
2021/12/18 07:14:54;;;;;;;;;39.00;21.75;;;;;12.27;95.43;103112.97;5004779;28;45481;-87
2021/12/18 07:17:19;;;;;;;;;32.50;23.50;;;;;12.29;95.34;103105.00;5009505;28;46943;-86
2021/12/18 07:19:45;;;;;;;;;26.75;23.00;;;;;12.31;95.55;103113.72;5023084;28;45399;-86
2021/12/18 07:22:10;;;;;;;;;30.25;25.00;;;;;12.33;95.50;103117.19;5023363;28;45455;-86
2021/12/18 07:24:35;;;;;;;;;31.00;20.50;;;;;12.26;95.40;103119.19;5032318;28;45670;-88
2021/12/18 07:27:03;;;;;;;;;32.25;24.50;;;;;12.25;95.40;103114.81;5018680;28;46042;-86
2021/12/18 07:29:35;;;;;;;;;31.75;24.25;;;;;12.30;95.67;103119.94;5009397;28;45368;-83
2021/12/18 07:53:23;;;;;;;;;26.25;21.75;;;;;12.21;95.57;103141.47;4775654;29;46526;-85
2021/12/18 07:59:23;;;;;;;;;27.00;21.25;;;;;12.03;95.84;103129.75;4815149;28;45904;-84
2021/12/18 08:02:14;;;;;;;;;28.25;23.25;;;;;12.18;95.77;103138.94;4921451;28;45630;-84
2021/12/18 08:05:14;;;;;;;;;26.00;20.75;;;;;12.19;95.92;103133.59;4917833;28;47135;-86
2021/12/18 08:07:46;;;;;;;;;34.00;21.75;;;;;12.21;95.84;103136.16;4937215;28;45959;-85
2021/12/18 08:10:12;;;;;;;;;38.75;24.00;;;;;12.59;95.14;103137.41;4930634;28;45415;-86
2021/12/18 08:19:26;;;;;;;;;33.50;24.50;;;;;12.60;94.50;103124.09;5741053;22;45806;-87
2021/12/18 08:31:33;;;;;;;;;33.25;28.00;;;;;12.58;94.61;103131.22;5380048;22;46453;-86
2021/12/18 08:34:53;;;;;;;;;;;;;;;;;;;;;
2021/12/18 08:37:13;;;;;;;;;33.00;23.00;;;;;12.72;94.70;103144.84;4958137;28;45500;-86
2021/12/18 08:39:38;;;;;;;;;30.25;22.25;;;;;12.70;94.40;103137.88;5032141;28;45543;-88
2021/12/18 08:42:06;;;;;;;;;26.50;21.75;;;;;12.63;94.37;103141.69;5038267;28;45335;-87
2021/12/18 08:50:25;;;;;;;;;31.25;23.75;;;;;12.72;94.65;103146.63;5867263;22;47421;-90
2021/12/18 09:19:33;;;;;;;;;29.75;19.00;;;;;13.74;92.34;103134.56;5512625;22;46679;-90
2021/12/18 09:32:12;;;;;;;;;28.25;22.25;;;;;14.11;92.23;103126.69;4997996;28;45617;-88
2021/12/18 09:34:44;;;;;;;;;28.50;23.25;;;;;14.14;91.84;103115.94;4994525;28;45877;-86
2021/12/18 09:39:37;;;;;;;;;33.33;22.00;;;;;14.17;91.96;103113.16;5050164;22;71991;-87
2021/12/18 09:42:03;;;;;;;;;24.25;20.50;;;;;14.13;91.99;103123.97;5028122;28;45415;-86
2021/12/18 11:13:37;;;;;;;;;;;;;;;;;;;;;
2021/12/18 11:20:44;;;;;;;;;27.50;24.25;;;;;19.02;79.54;103039.81;4820412;29;45615;-83
2021/12/18 11:23:09;;;;;;;;;29.00;26.75;;;;;19.11;79.59;103044.56;4859306;29;45561;-83
2021/12/18 11:25:56;;;;;;;;;27.00;23.00;;;;;19.13;78.14;103041.75;4877585;29;45423;-83
2021/12/18 11:28:49;;;;;;;;;31.75;24.50;;;;;19.37;77.51;103040.13;4982943;28;45597;-83
2021/12/18 11:31:54;;;;;;;;;25.25;23.25;;;;;19.46;78.45;103046.66;5035761;28;45454;-88
2021/12/18 11:34:23;;;;;;;;;24.25;22.50;;;;;19.46;78.12;103050.22;5035379;28;46220;-82
2021/12/18 11:36:53;;;;;;;;;28.75;23.25;;;;;19.60;76.38;103031.38;5020095;28;46109;-84
2021/12/18 11:39:26;;;;;;;;;24.75;23.25;;;;;19.69;75.91;103035.25;5036577;28;45874;-83
2021/12/18 11:41:53;;;;;;;;;31.50;23.00;;;;;19.71;75.77;103030.63;5018898;28;45846;-82
2021/12/18 11:44:36;;;;;;;;;25.50;20.50;;;;;19.66;74.88;103014.88;5037543;28;45556;-82
2021/12/18 11:47:23;;;;;;;;;24.25;21.00;;;;;19.87;74.63;103017.00;5038220;28;45554;-81
2021/12/18 11:49:49;;;;;;;;;27.75;22.25;;;;;19.84;74.75;103007.38;5040116;28;45476;-82
2021/12/18 11:52:15;;;;;;;;;26.25;23.50;;;;;19.77;73.97;103014.97;5038606;28;45466;-82
2021/12/18 11:54:50;;;;;;;;;32.75;28.25;;;;;19.92;74.12;103021.09;5021753;28;46081;-81
2021/12/18 11:57:40;;;;;;;;;24.75;21.50;;;;;20.11;73.19;103013.44;5039702;28;45765;-81
2021/12/18 12:00:28;;;;;;;;;30.25;25.00;;;;;20.22;73.60;103011.78;5039896;28;45346;-81
2021/12/18 12:02:55;;;;;;;;;27.50;22.25;;;;;20.29;73.68;103007.72;5014291;28;46458;-81
2021/12/18 12:05:35;;;;;;;;;23.25;20.75;;;;;20.52;72.32;103005.09;5018437;28;46279;-81
2021/12/18 12:08:20;;;;;;;;;33.75;24.25;;;;;20.41;72.66;103002.31;5036328;28;45331;-81
2021/12/18 12:11:16;;;;;;;;;28.00;23.50;;;;;20.57;72.75;103006.59;5039345;28;45276;-81
2021/12/18 12:13:55;;;;;;;;;25.50;24.00;;;;;20.50;70.99;102998.97;5039378;28;45321;-81
2021/12/18 12:16:44;;;;;;;;;44.00;29.00;;;;;20.53;71.79;102995.19;5039439;28;46311;-81
2021/12/18 12:19:14;;;;;;;;;24.50;21.00;;;;;20.46;70.35;102986.75;5030678;28;45710;-82
2021/12/18 12:21:45;;;;;;;;;26.25;24.00;;;;;20.37;71.28;102982.06;5039851;28;45417;-82
2021/12/18 12:24:13;;;;;;;;;30.50;23.50;;;;;20.34;70.82;102976.03;5021381;28;45371;-82
2021/12/18 12:26:39;;;;;;;;;29.75;22.50;;;;;20.22;71.07;102984.97;5038178;28;46275;-82
2021/12/18 12:29:06;;;;;;;;;36.00;26.50;;;;;20.24;71.28;102973.16;5021175;28;45389;-81
2021/12/18 12:31:32;;;;;;;;;34.00;25.25;;;;;20.41;70.89;102986.22;5021695;28;45511;-82
2021/12/18 12:34:20;;;;;;;;;35.00;27.00;;;;;20.56;70.42;102983.38;5039233;28;45296;-82
2021/12/18 12:36:46;;;;;;;;;25.25;18.25;;;;;20.27;68.95;102972.09;5037851;28;47175;-81
2021/12/18 12:39:14;;;;;;;;;30.75;22.00;;;;;20.31;70.24;102962.81;5021250;28;45320;-82
2021/12/18 12:41:42;;;;;;;;;30.75;25.00;;;;;20.32;70.40;102980.63;5039347;28;45495;-81
2021/12/18 12:44:35;;;;;;;;;29.50;22.75;;;;;20.30;70.13;102975.41;5038716;28;45439;-81
2021/12/18 12:47:17;;;;;;;;;26.00;20.50;;;;;20.48;70.53;102981.28;5013954;28;46471;-82
2021/12/18 12:49:45;;;;;;;;;28.75;23.25;;;;;20.49;70.35;102985.66;4999218;28;45631;-82
2021/12/18 12:52:13;;;;;;;;;32.25;25.50;;;;;20.46;69.45;102967.09;4999574;28;45380;-81
2021/12/18 12:54:58;;;;;;;;;24.75;22.75;;;;;20.48;69.72;102970.53;4999492;28;45311;-82
2021/12/18 12:57:23;;;;;;;;;29.25;22.25;;;;;20.57;69.92;102961.81;4999864;28;48180;-81
2021/12/18 12:59:58;;;;;;;;;35.00;24.00;;;;;20.65;69.77;102950.50;4999125;28;45330;-82
2021/12/18 13:02:35;;;;;;;;;34.25;28.00;;;;;20.64;69.70;102954.13;5014596;28;45363;-81
2021/12/18 13:05:03;;;;;;;;;20.50;17.25;;;;;20.66;70.34;102947.69;4999756;28;45731;-82
2021/12/18 13:07:28;;;;;;;;;39.25;30.25;;;;;20.66;69.86;102944.16;5001956;28;46237;-82
2021/12/18 13:09:54;;;;;;;;;28.00;24.00;;;;;20.43;69.41;102938.66;5001143;28;45480;-82
2021/12/18 13:12:19;;;;;;;;;29.50;21.75;;;;;20.44;69.75;102945.75;5001218;28;45412;-81
2021/12/18 13:14:46;;;;;;;;;31.00;27.25;;;;;20.45;68.83;102936.72;5002412;28;45399;-82
2021/12/18 13:17:24;;;;;;;;;37.25;28.50;;;;;20.48;69.25;102930.28;5017619;28;47178;-82
2021/12/18 13:20:02;;;;;;;;;33.75;26.75;;;;;20.39;69.05;102931.81;5002611;28;45480;-82
2021/12/18 13:22:32;;;;;;;;;27.25;23.25;;;;;20.32;69.10;102932.34;5002359;28;45249;-81
2021/12/18 13:25:14;;;;;;;;;28.25;21.75;;;;;20.18;69.61;102938.72;5004078;28;45441;-82
2021/12/18 13:27:42;;;;;;;;;30.25;24.00;;;;;20.08;69.22;102927.81;5003690;28;46269;-81
2021/12/18 13:30:18;;;;;;;;;36.00;22.50;;;;;20.06;69.07;102915.47;5007031;28;45825;-81
2021/12/18 13:33:09;;;;;;;;;31.25;24.50;;;;;20.15;68.59;102926.41;5004977;28;45332;-80
2021/12/18 13:35:37;;;;;;;;;29.00;24.25;;;;;20.01;69.26;102912.28;5002698;28;45526;-81
2021/12/18 13:38:08;;;;;;;;;31.50;22.00;;;;;19.93;68.50;102910.19;5026280;28;47163;-81
2021/12/18 13:40:45;;;;;;;;;24.75;20.00;;;;;19.76;68.77;102906.00;5010074;28;45806;-80
2021/12/18 13:43:21;;;;;;;;;25.25;24.00;;;;;19.72;68.87;102912.56;5010827;28;45323;-81
2021/12/18 13:45:50;;;;;;;;;28.25;23.50;;;;;19.73;68.77;102914.28;5009745;28;45479;-81
2021/12/18 13:48:17;;;;;;;;;31.00;24.25;;;;;19.69;69.10;102911.94;5030031;28;46332;-81
2021/12/18 13:50:42;;;;;;;;;34.75;22.75;;;;;19.61;68.85;102903.56;5043884;28;45715;-81
2021/12/18 13:53:11;;;;;;;;;28.75;21.25;;;;;19.64;68.89;102911.41;5041920;28;45229;-81
2021/12/18 13:55:47;;;;;;;;;28.50;23.25;;;;;19.67;69.06;102895.94;5041155;28;45309;-82
2021/12/18 13:58:34;;;;;;;;;28.75;23.00;;;;;19.70;68.38;102900.25;5041341;28;46177;-81
2021/12/18 14:01:09;;;;;;;;;31.25;25.25;;;;;19.70;68.98;102909.13;5040225;28;45549;-81
2021/12/18 14:03:46;;;;;;;;;29.50;23.50;;;;;19.60;69.18;102908.06;5041421;28;45357;-82
2021/12/18 14:06:19;;;;;;;;;34.25;24.25;;;;;19.51;69.01;102907.88;5041410;28;45569;-80
2021/12/18 14:08:48;;;;;;;;;24.00;19.00;;;;;19.40;68.67;102912.13;5031292;28;46714;-81
2021/12/18 14:11:17;;;;;;;;;26.50;23.00;;;;;19.34;69.68;102901.84;5041127;28;45432;-81
2021/12/18 14:13:50;;;;;;;;;27.00;21.00;;;;;19.18;69.53;102892.31;5038902;28;45343;-82
2021/12/18 14:16:18;;;;;;;;;32.75;23.00;;;;;19.20;69.10;102903.81;5040260;28;45386;-81
2021/12/18 14:18:51;;;;;;;;;33.75;22.75;;;;;19.15;69.42;102898.75;5022908;28;47103;-82
2021/12/18 14:21:17;;;;;;;;;31.50;23.75;;;;;19.16;69.79;102911.19;5022935;28;45328;-82
2021/12/18 14:23:44;;;;;;;;;28.50;22.25;;;;;19.10;69.44;102908.06;5041289;28;45434;-81
2021/12/18 14:26:20;;;;;;;;;29.00;20.75;;;;;19.10;70.12;102914.28;5040877;28;45410;-81
2021/12/18 14:28:47;;;;;;;;;33.50;25.00;;;;;18.92;70.10;102899.50;5040608;28;45288;-81
2021/12/18 14:31:44;;;;;;;;;31.25;24.25;;;;;18.98;69.88;102912.44;5039623;28;45489;-82
2021/12/18 14:34:11;;;;;;;;;24.00;19.75;;;;;18.92;69.80;102902.16;5024027;28;45446;-82
2021/12/18 14:36:53;;;;;;;;;28.00;23.50;;;;;18.92;70.08;102910.19;5040995;28;45490;-81
2021/12/18 14:39:26;;;;;;;;;27.50;23.00;;;;;18.91;70.10;102922.72;5032585;28;47020;-82
2021/12/18 14:42:02;;;;;;;;;30.75;21.75;;;;;18.90;69.70;102918.34;5040733;28;45303;-80
2021/12/18 14:44:30;;;;;;;;;28.50;22.00;;;;;18.81;70.33;102920.78;5022716;28;45296;-81
2021/12/18 14:47:11;;;;;;;;;26.00;19.75;;;;;18.82;70.19;102927.84;5040618;28;45562;-81
2021/12/18 14:49:52;;;;;;;;;26.00;21.00;;;;;18.71;70.08;102927.72;5000730;28;45563;-80
2021/12/18 14:52:17;;;;;;;;;23.25;20.25;;;;;18.60;69.47;102920.38;4999458;28;45432;-81
2021/12/18 14:54:52;;;;;;;;;22.50;20.75;;;;;18.64;69.64;102922.78;5000778;28;45704;-81
2021/12/18 14:57:21;;;;;;;;;30.00;22.00;;;;;18.70;70.12;102932.19;4990787;28;45472;-81
2021/12/18 14:59:46;;;;;;;;;29.25;26.25;;;;;18.73;69.87;102925.78;5000429;28;45309;-81
2021/12/18 15:02:12;;;;;;;;;33.75;24.00;;;;;18.71;69.37;102925.03;4999487;28;45845;-81
2021/12/18 15:04:37;;;;;;;;;36.25;26.75;;;;;18.72;69.71;102935.63;5000433;28;45740;-81
2021/12/18 15:07:03;;;;;;;;;24.25;21.75;;;;;18.61;69.82;102920.28;4996821;28;45496;-82